createdAt,value
2022-11-04T00:01:08.072Z,11.45
2022-11-04T00:03:31.701Z,12.00
2022-11-04T00:05:55.196Z,12.27
2022-11-04T00:08:26.361Z,11.63
2022-11-04T00:11:03.759Z,11.63
2022-11-04T00:13:30.135Z,12.45
2022-11-04T00:16:13.449Z,12.40
2022-11-04T00:18:37.701Z,12.07
2022-11-04T00:21:18.675Z,12.45
2022-11-04T00:24:01.157Z,12.50
2022-11-04T00:26:41.930Z,12.00
2022-11-04T00:29:05.598Z,12.45
2022-11-04T00:31:46.358Z,12.30
2022-11-04T00:34:10.058Z,12.27
2022-11-04T00:36:33.594Z,11.50
2022-11-04T00:38:59.184Z,13.20
2022-11-04T00:41:30.419Z,12.80
2022-11-04T00:43:54.307Z,12.75
2022-11-04T00:46:17.834Z,12.63
2022-11-04T00:48:41.437Z,13.80
2022-11-04T00:51:05.111Z,13.93
2022-11-04T00:53:28.765Z,13.35
2022-11-04T00:55:53.726Z,13.20
2022-11-04T00:58:17.297Z,13.63
2022-11-04T01:00:40.846Z,14.02
2022-11-04T01:03:04.441Z,13.77
2022-11-04T01:05:28.391Z,15.38
2022-11-04T01:07:51.980Z,14.95
2022-11-04T01:10:15.611Z,15.05
2022-11-04T01:12:40.613Z,14.35
2022-11-04T01:15:04.249Z,14.43
2022-11-04T01:17:27.944Z,15.30
2022-11-04T01:19:51.450Z,14.13
2022-11-04T01:22:15.020Z,14.18
2022-11-04T01:24:38.580Z,13.52
2022-11-04T01:27:02.167Z,14.80
2022-11-04T01:29:27.356Z,14.57
2022-11-04T01:31:50.958Z,14.40
2022-11-04T01:34:14.491Z,14.90
2022-11-04T01:36:38.104Z,13.75
2022-11-04T01:39:01.606Z,14.27
2022-11-04T01:41:28.399Z,14.40
2022-11-04T01:43:54.389Z,14.48
2022-11-04T01:46:28.669Z,15.00
2022-11-04T01:48:54.036Z,15.02
2022-11-04T01:51:17.644Z,14.40
2022-11-04T01:53:44.870Z,14.85
2022-11-04T01:56:12.998Z,15.27
2022-11-04T01:58:36.971Z,15.07
2022-11-04T02:01:00.725Z,15.77
2022-11-04T02:03:30.510Z,15.27
2022-11-04T02:05:55.501Z,14.93
2022-11-04T02:08:19.875Z,15.38
2022-11-04T02:10:50.229Z,15.57
2022-11-04T02:13:12.990Z,15.63
2022-11-04T02:15:45.874Z,15.32
2022-11-04T02:18:33.699Z,15.55
2022-11-04T02:21:45.021Z,15.68
2022-11-04T02:24:49.758Z,15.50
2022-11-04T02:27:47.312Z,15.35
2022-11-04T02:30:15.142Z,15.27
2022-11-04T02:33:15.133Z,15.15
2022-11-04T02:35:45.925Z,15.32
2022-11-04T02:38:19.897Z,15.82
2022-11-04T02:40:51.524Z,15.35
2022-11-04T02:43:23.551Z,15.00
2022-11-04T02:45:50.647Z,15.40
2022-11-04T02:48:22.772Z,16.02
2022-11-04T02:50:52.100Z,16.17
2022-11-04T02:53:21.675Z,16.00
2022-11-04T02:55:48.564Z,15.57
2022-11-04T02:58:17.302Z,16.25
2022-11-04T03:00:43.366Z,15.68
2022-11-04T03:03:14.205Z,15.48
2022-11-04T03:05:41.250Z,16.05
2022-11-04T03:08:10.802Z,16.08
2022-11-04T03:10:39.841Z,15.93
2022-11-04T03:13:13.148Z,16.08
2022-11-04T03:15:39.143Z,17.38
2022-11-04T03:18:14.845Z,18.40
2022-11-04T03:20:40.073Z,17.73
2022-11-04T03:23:03.973Z,19.25
2022-11-04T03:25:33.505Z,18.33
2022-11-04T03:28:05.266Z,19.05
2022-11-04T03:30:39.931Z,18.58
2022-11-04T03:33:10.507Z,19.23
2022-11-04T03:35:35.225Z,19.10
2022-11-04T03:37:59.571Z,19.95
2022-11-04T03:40:23.987Z,20.30
2022-11-04T03:42:57.019Z,18.77
2022-11-04T03:45:20.975Z,19.00
2022-11-04T03:47:45.300Z,19.85
2022-11-04T03:50:17.826Z,19.27
2022-11-04T03:52:41.820Z,19.58
2022-11-04T03:55:06.477Z,19.80
2022-11-04T03:57:47.510Z,18.50
2022-11-04T04:00:14.597Z,17.95
2022-11-04T04:03:02.712Z,18.23
2022-11-04T04:05:31.332Z,18.27
2022-11-04T04:08:21.365Z,16.67
2022-11-04T04:10:54.352Z,17.95
2022-11-04T04:13:31.852Z,17.88
2022-11-04T04:16:01.577Z,17.35
2022-11-04T04:18:33.240Z,17.52
2022-11-04T04:21:03.252Z,16.63
2022-11-04T04:23:44.766Z,16.38
2022-11-04T04:26:28.765Z,16.88
2022-11-04T04:28:53.682Z,17.08
2022-11-04T04:31:39.346Z,16.63
2022-11-04T04:34:03.166Z,16.95
2022-11-04T04:36:29.269Z,17.15
2022-11-04T04:39:18.765Z,17.30
2022-11-04T04:42:02.066Z,16.83
2022-11-04T04:44:45.077Z,17.15
2022-11-04T04:47:10.688Z,16.23
2022-11-04T04:49:36.134Z,17.27
2022-11-04T04:52:02.171Z,17.45
2022-11-04T04:54:25.813Z,17.23
2022-11-04T04:56:49.377Z,16.42
2022-11-04T04:59:12.873Z,16.75
2022-11-04T05:01:36.504Z,16.60
2022-11-04T05:04:00.154Z,16.83
2022-11-04T05:06:23.933Z,16.42
2022-11-04T05:08:48.829Z,16.83
2022-11-04T05:11:12.709Z,17.02
2022-11-04T05:13:36.289Z,17.05
2022-11-04T05:16:05.945Z,16.73
2022-11-04T05:18:29.531Z,17.58
2022-11-04T05:20:53.102Z,17.08
2022-11-04T05:23:16.721Z,16.95
2022-11-04T05:25:43.021Z,16.48
2022-11-04T05:28:07.310Z,16.00
2022-11-04T05:30:31.136Z,16.00
2022-11-04T05:32:58.408Z,16.05
2022-11-04T05:35:25.307Z,17.00
2022-11-04T05:37:48.903Z,16.15
2022-11-04T05:40:13.683Z,16.30
2022-11-04T05:42:38.590Z,16.13
2022-11-04T05:45:02.142Z,15.60
2022-11-04T05:47:25.672Z,15.65
2022-11-04T05:49:49.237Z,17.65
2022-11-04T05:52:12.781Z,15.82
2022-11-04T05:54:38.518Z,16.38
2022-11-04T05:57:02.098Z,16.75
2022-11-04T05:59:27.021Z,15.95
2022-11-04T06:01:51.466Z,16.23
2022-11-04T06:04:18.778Z,16.25
2022-11-04T06:06:42.733Z,16.40
2022-11-04T06:09:06.399Z,16.38
2022-11-04T06:11:31.546Z,15.70
2022-11-04T06:13:57.102Z,16.55
2022-11-04T06:16:22.118Z,16.65
2022-11-04T06:18:45.657Z,17.77
2022-11-04T06:21:24.925Z,17.00
2022-11-04T06:23:48.584Z,17.63
2022-11-04T06:26:13.496Z,16.85
2022-11-04T06:28:37.158Z,17.15
2022-11-04T06:31:02.605Z,17.67
2022-11-04T06:33:30.445Z,16.77
2022-11-04T06:35:59.557Z,17.13
2022-11-04T06:38:23.134Z,17.25
2022-11-04T06:40:46.704Z,17.63
2022-11-04T06:43:10.554Z,16.45
2022-11-04T06:45:34.425Z,17.70
2022-11-04T06:47:57.989Z,16.60
2022-11-04T06:50:23.318Z,16.98
2022-11-04T06:52:46.879Z,18.88
2022-11-04T06:55:11.347Z,18.55
2022-11-04T06:57:34.934Z,18.00
2022-11-04T06:59:58.603Z,17.65
2022-11-04T07:02:22.267Z,18.00
2022-11-04T07:04:45.894Z,18.73
2022-11-04T07:07:11.124Z,19.05
2022-11-04T07:09:35.421Z,18.67
2022-11-04T07:11:58.929Z,19.63
2022-11-04T07:14:22.558Z,18.67
2022-11-04T07:16:46.151Z,18.73
2022-11-04T07:19:09.839Z,20.30
2022-11-04T07:21:33.681Z,20.95
2022-11-04T07:23:58.622Z,19.77
2022-11-04T07:26:22.161Z,20.60
2022-11-04T07:28:46.024Z,20.90
2022-11-04T07:31:12.938Z,21.70
2022-11-04T07:33:36.991Z,21.67
2022-11-04T07:36:05.041Z,23.05
2022-11-04T07:38:28.601Z,22.45
2022-11-04T07:40:53.577Z,23.10
2022-11-04T07:43:17.534Z,22.55
2022-11-04T07:45:42.402Z,23.90
2022-11-04T07:48:06.682Z,24.45
2022-11-04T07:50:30.611Z,22.65
2022-11-04T07:52:54.197Z,23.02
2022-11-04T07:55:18.644Z,23.10
2022-11-04T07:57:43.586Z,23.38
2022-11-04T08:00:08.605Z,21.58
2022-11-04T08:02:36.291Z,21.75
2022-11-04T08:04:59.942Z,21.90
2022-11-04T08:07:23.507Z,22.02
2022-11-04T08:09:47.072Z,22.25
2022-11-04T08:12:10.697Z,22.30
2022-11-04T08:14:35.663Z,22.05
2022-11-04T08:17:00.073Z,20.27
2022-11-04T08:19:23.618Z,21.08
2022-11-04T08:21:47.393Z,20.90
2022-11-04T08:24:10.917Z,21.38
2022-11-04T08:26:34.572Z,21.42
2022-11-04T08:28:59.394Z,22.33
2022-11-04T08:31:26.607Z,22.83
2022-11-04T08:33:50.347Z,22.50
2022-11-04T08:36:17.829Z,21.00
2022-11-04T08:38:41.517Z,21.63
2022-11-04T08:41:07.830Z,19.52
2022-11-04T08:43:31.676Z,19.70
2022-11-04T08:45:55.684Z,18.42
2022-11-04T08:48:20.686Z,18.88
2022-11-04T08:50:45.104Z,18.05
2022-11-04T08:53:08.873Z,17.60
2022-11-04T08:55:33.696Z,18.73
2022-11-04T08:57:57.399Z,16.45
2022-11-04T09:00:21.281Z,17.63
2022-11-04T09:02:44.872Z,16.88
2022-11-04T09:05:10.316Z,16.98
2022-11-04T09:07:35.437Z,17.52
2022-11-04T09:09:59.020Z,18.40
2022-11-04T09:12:22.703Z,17.85
2022-11-04T09:14:46.241Z,17.00
2022-11-04T09:17:09.773Z,17.55
2022-11-04T09:19:33.709Z,16.55
2022-11-04T09:21:58.673Z,16.38
2022-11-04T09:24:22.287Z,15.93
2022-11-04T09:26:45.897Z,15.50
2022-11-04T09:29:09.911Z,15.05
2022-11-04T09:31:33.597Z,15.80
2022-11-04T09:33:57.598Z,15.70
2022-11-04T09:36:21.192Z,16.02
2022-11-04T09:38:46.281Z,14.60
2022-11-04T09:41:52.720Z,14.65
2022-11-04T09:44:27.211Z,14.98
2022-11-04T09:46:54.279Z,15.18
2022-11-04T09:49:18.144Z,14.90
2022-11-04T09:51:54.152Z,14.85
2022-11-04T09:54:24.274Z,14.15
2022-11-04T09:56:51.356Z,13.48
2022-11-04T09:59:26.527Z,12.88
2022-11-04T10:02:03.796Z,14.38
2022-11-04T10:04:46.033Z,14.15
2022-11-04T10:07:26.989Z,13.48
2022-11-04T10:10:04.399Z,13.85
2022-11-04T10:12:48.693Z,13.05
2022-11-04T10:15:38.826Z,13.05
2022-11-04T10:18:19.466Z,11.77
2022-11-04T10:20:56.381Z,12.13
2022-11-04T10:23:24.214Z,13.05
2022-11-04T10:25:54.941Z,11.85
2022-11-04T10:28:21.479Z,12.18
2022-11-04T10:30:48.986Z,12.52
2022-11-04T10:33:21.414Z,12.88
2022-11-04T10:35:49.985Z,12.98
2022-11-04T10:38:20.856Z,12.48
2022-11-04T10:40:51.655Z,11.43
2022-11-04T10:43:22.702Z,11.48
2022-11-04T10:45:56.647Z,12.07
2022-11-04T10:48:28.905Z,11.75
2022-11-04T10:50:57.277Z,11.18
2022-11-04T10:53:24.827Z,12.02
2022-11-04T10:55:58.186Z,11.57
2022-11-04T10:58:26.094Z,11.65
2022-11-04T11:00:51.739Z,12.18
2022-11-04T11:03:34.972Z,11.63
2022-11-04T11:06:22.760Z,11.95
2022-11-04T11:08:47.687Z,11.88
2022-11-04T11:11:15.380Z,11.85
2022-11-04T11:13:42.470Z,11.55
2022-11-04T11:16:11.802Z,12.63
2022-11-04T11:18:37.225Z,11.18
2022-11-04T11:21:14.246Z,12.50
2022-11-04T11:23:44.314Z,12.35
2022-11-04T11:26:11.814Z,11.90
2022-11-04T11:28:38.925Z,11.70
2022-11-04T11:31:06.722Z,11.98
2022-11-04T11:33:31.904Z,11.73
2022-11-04T11:35:58.247Z,11.48
2022-11-04T11:38:25.690Z,11.63
2022-11-04T11:41:18.775Z,11.90
2022-11-04T11:43:41.274Z,12.25
2022-11-04T11:46:05.430Z,11.98
2022-11-04T11:48:36.566Z,12.50
2022-11-04T11:51:01.084Z,12.45
2022-11-04T11:53:25.538Z,13.00
2022-11-04T11:55:57.302Z,13.05
2022-11-04T12:01:25.571Z,11.30
2022-11-04T12:09:39.754Z,12.32
2022-11-04T12:12:19.385Z,12.30
2022-11-04T12:14:55.590Z,12.60
2022-11-04T12:17:36.886Z,12.50
2022-11-04T12:20:17.168Z,12.75
2022-11-04T12:22:50.633Z,12.63
2022-11-04T12:25:24.421Z,13.02
2022-11-04T12:27:57.837Z,13.00
2022-11-04T12:30:31.166Z,12.07
2022-11-04T12:33:18.917Z,12.52
2022-11-04T12:35:57.237Z,12.43
2022-11-04T12:38:44.307Z,11.32
2022-11-04T12:41:41.888Z,12.15
2022-11-04T12:44:10.662Z,11.63
2022-11-04T12:46:41.762Z,12.02
2022-11-04T12:49:35.434Z,11.57
2022-11-04T12:52:11.580Z,12.15
2022-11-04T12:54:59.876Z,11.50
2022-11-04T12:57:34.574Z,11.98
2022-11-04T13:00:11.363Z,11.60
2022-11-04T13:02:41.303Z,11.68
2022-11-04T13:05:19.980Z,11.27
2022-11-04T13:07:51.549Z,12.20
2022-11-04T13:10:22.865Z,12.98
2022-11-04T13:12:48.767Z,10.98
2022-11-04T13:15:19.838Z,11.15
2022-11-04T13:17:47.204Z,12.20
2022-11-04T13:20:34.531Z,13.55
2022-11-04T13:23:03.445Z,13.95
2022-11-04T13:25:34.874Z,13.50
2022-11-04T13:27:59.940Z,14.38
2022-11-04T13:30:32.647Z,13.55
2022-11-04T13:33:02.086Z,17.17
2022-11-04T13:35:38.304Z,16.67
2022-11-04T13:38:08.825Z,16.67
2022-11-04T13:40:43.664Z,16.63
2022-11-04T13:43:40.356Z,16.58
2022-11-04T13:46:05.296Z,19.05
2022-11-04T13:48:33.301Z,16.23
2022-11-04T13:51:02.378Z,17.33
2022-11-04T13:53:44.460Z,17.52
2022-11-04T13:56:31.537Z,17.98
2022-11-04T13:58:54.738Z,21.10
2022-11-04T14:01:31.129Z,21.15
2022-11-04T14:04:00.290Z,20.02
2022-11-04T14:06:53.273Z,20.45
2022-11-04T14:09:37.678Z,20.25
2022-11-04T14:12:35.633Z,17.95
2022-11-04T14:15:11.688Z,18.63
2022-11-04T14:18:05.880Z,21.65
2022-11-04T14:20:36.979Z,17.75
2022-11-04T14:23:03.467Z,19.63
2022-11-04T14:25:34.929Z,18.35
2022-11-04T14:28:01.761Z,16.88
2022-11-04T14:30:43.408Z,17.00
2022-11-04T14:33:22.972Z,18.42
2022-11-04T14:35:46.751Z,17.45
2022-11-04T14:38:27.369Z,18.92
2022-11-04T14:40:54.486Z,21.15
2022-11-04T14:43:33.670Z,19.15
2022-11-04T14:45:58.266Z,18.42
2022-11-04T14:48:22.445Z,18.45
2022-11-04T14:50:52.377Z,18.52
2022-11-04T14:53:25.162Z,19.77
2022-11-04T14:55:48.951Z,20.00
2022-11-04T14:58:25.540Z,18.58
2022-11-04T15:00:57.142Z,19.30
2022-11-04T15:04:09.415Z,17.15
2022-11-04T15:06:13.512Z,18.33
2022-11-04T15:08:44.845Z,16.27
2022-11-04T15:11:17.461Z,16.48
2022-11-04T15:13:47.622Z,16.23
2022-11-04T15:16:16.453Z,18.95
2022-11-04T15:18:41.394Z,16.70
2022-11-04T15:21:06.563Z,17.40
2022-11-04T15:23:33.252Z,17.60
2022-11-04T15:25:59.969Z,19.23
2022-11-04T15:28:26.767Z,18.75
2022-11-04T15:31:07.434Z,17.02
2022-11-04T15:33:32.445Z,18.80
2022-11-04T15:35:57.587Z,19.13
2022-11-04T15:38:21.501Z,22.50
2022-11-04T15:40:46.405Z,28.20
2022-11-04T15:43:12.090Z,19.38
2022-11-04T15:45:42.612Z,18.52
2022-11-04T15:48:26.605Z,18.42
2022-11-04T15:51:01.390Z,17.73
2022-11-04T15:53:25.143Z,19.05
2022-11-04T15:55:49.825Z,21.05
2022-11-04T15:58:17.191Z,21.33
2022-11-04T16:00:41.290Z,18.30
2022-11-04T16:03:05.421Z,20.27
2022-11-04T16:05:31.300Z,19.20
2022-11-04T16:07:59.511Z,19.95
2022-11-04T16:10:31.905Z,19.40
2022-11-04T16:12:58.625Z,19.02
2022-11-04T16:15:42.319Z,19.23
2022-11-04T16:18:08.103Z,19.95
2022-11-04T16:20:32.526Z,20.27
2022-11-04T16:23:00.206Z,19.90
2022-11-04T16:25:25.597Z,18.67
2022-11-04T16:27:49.426Z,21.05
2022-11-04T16:30:20.901Z,21.13
2022-11-04T16:32:49.064Z,20.48
2022-11-04T16:35:23.917Z,19.30
2022-11-04T16:37:47.710Z,20.65
2022-11-04T16:40:11.942Z,19.98
2022-11-04T16:42:35.518Z,20.08
2022-11-04T16:45:03.320Z,19.38
2022-11-04T16:47:28.590Z,19.60
2022-11-04T16:49:53.505Z,19.50
2022-11-04T16:52:25.556Z,18.95
2022-11-04T16:54:49.457Z,18.20
2022-11-04T16:57:15.656Z,17.55
2022-11-04T16:59:40.093Z,16.98
2022-11-04T17:02:22.417Z,16.90
2022-11-04T17:04:46.350Z,17.65
2022-11-04T17:07:11.269Z,16.85
2022-11-04T17:09:34.897Z,19.08
2022-11-04T17:11:58.489Z,17.55
2022-11-04T17:14:22.438Z,17.20
2022-11-04T17:16:46.109Z,18.38
2022-11-04T17:19:16.245Z,17.38
2022-11-04T17:21:40.640Z,18.15
2022-11-04T17:24:06.489Z,16.45
2022-11-04T17:26:30.042Z,16.52
2022-11-04T17:28:53.591Z,16.52
2022-11-04T17:31:20.999Z,18.00
2022-11-04T17:33:44.622Z,16.55
2022-11-04T17:36:10.605Z,17.48
2022-11-04T17:38:34.169Z,17.35
2022-11-04T17:41:16.586Z,18.15
2022-11-04T17:43:57.477Z,15.85
2022-11-04T17:46:37.916Z,19.30
2022-11-04T17:49:02.115Z,18.50
2022-11-04T17:51:26.022Z,17.85
2022-11-04T17:53:50.062Z,19.48
2022-11-04T17:56:17.753Z,21.48
2022-11-04T17:58:41.326Z,20.17
2022-11-04T18:01:08.817Z,19.30
2022-11-04T18:03:32.551Z,17.33
2022-11-04T18:05:59.978Z,20.02
2022-11-04T18:08:23.616Z,20.45
2022-11-04T18:10:47.167Z,22.17
2022-11-04T18:13:12.519Z,20.17
2022-11-04T18:15:36.298Z,20.02
2022-11-04T18:17:59.935Z,19.85
2022-11-04T18:20:23.510Z,22.30
2022-11-04T18:22:47.422Z,21.17
2022-11-04T18:25:12.318Z,21.58
2022-11-04T18:27:36.176Z,20.50
2022-11-04T18:30:01.122Z,21.42
2022-11-04T18:32:24.857Z,20.52
2022-11-04T18:34:50.143Z,19.10
2022-11-04T18:37:13.766Z,20.13
2022-11-04T18:39:38.477Z,19.55
2022-11-04T18:42:02.215Z,19.38
2022-11-04T18:44:25.989Z,19.17
2022-11-04T18:46:53.019Z,18.70
2022-11-04T18:49:17.880Z,18.13
2022-11-04T18:51:41.729Z,18.55
2022-11-04T18:54:07.208Z,17.55
2022-11-04T18:56:30.859Z,18.92
2022-11-04T18:58:54.371Z,18.63
2022-11-04T19:01:22.421Z,18.60
2022-11-04T19:03:48.026Z,18.55
2022-11-04T19:06:17.335Z,19.10
2022-11-04T19:08:46.482Z,17.38
2022-11-04T19:11:17.751Z,16.90
2022-11-04T19:13:41.553Z,18.85
2022-11-04T19:16:07.309Z,18.20
2022-11-04T19:18:30.878Z,18.77
2022-11-04T19:20:56.701Z,17.52
2022-11-04T19:23:20.554Z,18.55
2022-11-04T19:25:44.469Z,19.02
2022-11-04T19:28:32.603Z,19.52
2022-11-04T19:30:59.922Z,18.50
2022-11-04T19:33:23.545Z,18.23
2022-11-04T19:35:47.098Z,18.50
2022-11-04T19:38:12.409Z,19.25
2022-11-04T19:40:36.157Z,18.27
2022-11-04T19:43:10.657Z,18.55
2022-11-04T19:45:34.368Z,18.63
2022-11-04T19:47:58.118Z,18.13
2022-11-04T19:50:22.393Z,18.33
2022-11-04T19:52:45.952Z,18.25
2022-11-04T19:55:11.468Z,18.40
2022-11-04T19:57:35.349Z,18.35
2022-11-04T19:59:58.963Z,18.95
2022-11-04T20:02:23.201Z,18.27
2022-11-04T20:04:47.850Z,20.23
2022-11-04T20:07:11.404Z,19.45
2022-11-04T20:09:34.971Z,19.92
2022-11-04T20:12:17.373Z,20.33
2022-11-04T20:14:40.958Z,19.35
2022-11-04T20:17:06.384Z,20.13
2022-11-04T20:19:30.006Z,20.13
2022-11-04T20:21:54.133Z,18.85
2022-11-04T20:24:17.759Z,19.05
2022-11-04T20:26:44.510Z,20.77
2022-11-04T20:29:09.727Z,19.27
2022-11-04T20:31:37.090Z,18.50
2022-11-04T20:34:02.487Z,19.45
2022-11-04T20:36:29.052Z,20.15
2022-11-04T20:38:57.713Z,20.25
2022-11-04T20:41:21.258Z,20.77
2022-11-04T20:43:44.925Z,19.45
2022-11-04T20:46:14.077Z,18.85
2022-11-04T20:48:38.024Z,19.30
2022-11-04T20:51:08.080Z,18.92
2022-11-04T20:53:31.742Z,17.95
2022-11-04T20:55:55.274Z,19.55
2022-11-04T20:58:18.915Z,18.73
2022-11-04T21:00:42.551Z,18.08
2022-11-04T21:03:07.523Z,18.92
2022-11-04T21:05:31.246Z,19.23
2022-11-04T21:07:54.795Z,18.52
2022-11-04T21:10:23.899Z,18.98
2022-11-04T21:12:48.505Z,19.70
2022-11-04T21:15:35.587Z,19.98
2022-11-04T21:17:59.158Z,18.05
2022-11-04T21:20:24.070Z,19.85
2022-11-04T21:22:47.844Z,20.13
2022-11-04T21:25:11.448Z,20.10
2022-11-04T21:27:35.101Z,19.25
2022-11-04T21:29:58.639Z,19.00
2022-11-04T21:32:22.322Z,19.08
2022-11-04T21:34:45.835Z,19.33
2022-11-04T21:37:10.784Z,18.70
2022-11-04T21:39:34.334Z,19.30
2022-11-04T21:41:57.909Z,19.88
2022-11-04T21:44:21.484Z,17.65
2022-11-04T21:46:45.173Z,18.25
2022-11-04T21:49:08.753Z,19.75
2022-11-04T21:51:34.474Z,18.58
2022-11-04T21:54:00.395Z,19.52
2022-11-04T21:56:27.012Z,18.30
2022-11-04T21:58:50.685Z,17.90
2022-11-04T22:01:17.860Z,18.20
2022-11-04T22:03:41.739Z,18.63
2022-11-04T22:06:07.842Z,18.05
2022-11-04T22:08:32.045Z,18.75
2022-11-04T22:10:57.651Z,18.40
2022-11-04T22:13:23.289Z,18.50
2022-11-04T22:16:01.781Z,18.17
2022-11-04T22:18:25.435Z,19.35
2022-11-04T22:20:48.958Z,18.95
2022-11-04T22:23:12.883Z,19.15
2022-11-04T22:25:36.661Z,16.92
2022-11-04T22:28:01.602Z,18.50
2022-11-04T22:30:25.496Z,18.65
2022-11-04T22:32:49.108Z,18.77
2022-11-04T22:35:12.608Z,18.38
2022-11-04T22:37:36.216Z,18.95
2022-11-04T22:39:59.882Z,17.52
2022-11-04T22:42:23.463Z,18.80
2022-11-04T22:44:48.346Z,17.98
2022-11-04T22:47:11.978Z,18.52
2022-11-04T22:49:36.353Z,18.13
2022-11-04T22:51:59.944Z,19.02
2022-11-04T22:54:23.494Z,19.42
2022-11-04T22:56:47.089Z,17.40
2022-11-04T22:59:12.209Z,17.98
2022-11-04T23:01:37.245Z,18.45
2022-11-04T23:04:01.101Z,18.73
2022-11-04T23:06:26.433Z,17.92
2022-11-04T23:08:51.351Z,17.15
2022-11-04T23:11:37.481Z,18.10
2022-11-04T23:14:20.811Z,17.85
2022-11-04T23:17:05.431Z,17.27
2022-11-04T23:19:30.963Z,16.88
2022-11-04T23:22:11.976Z,16.92
2022-11-04T23:24:52.742Z,16.65
2022-11-04T23:27:36.488Z,16.13
2022-11-04T23:30:18.865Z,16.52
2022-11-04T23:32:44.248Z,15.23
2022-11-04T23:35:28.377Z,15.85
2022-11-04T23:37:59.529Z,15.23
2022-11-04T23:40:23.080Z,13.00
2022-11-04T23:42:46.577Z,13.55
2022-11-04T23:45:29.017Z,13.88
2022-11-04T23:48:14.653Z,14.30
2022-11-04T23:50:55.776Z,13.77
2022-11-04T23:53:38.917Z,14.10
2022-11-04T23:56:20.411Z,12.57
2022-11-04T23:59:01.757Z,13.18
